createdAt,value
2022-09-29T00:01:46.762Z,7.10
2022-09-29T00:04:13.735Z,7.10
2022-09-29T00:06:40.547Z,7.00
2022-09-29T00:09:07.323Z,7.10
2022-09-29T00:11:34.323Z,7.00
2022-09-29T00:14:01.106Z,7.00
2022-09-29T00:16:29.294Z,7.00
2022-09-29T00:18:56.398Z,7.00
2022-09-29T00:21:23.822Z,7.00
2022-09-29T00:23:51.078Z,7.00
2022-09-29T00:26:23.902Z,6.90
2022-09-29T00:28:59.772Z,6.90
2022-09-29T00:31:29.834Z,6.90
2022-09-29T00:33:57.085Z,6.90
2022-09-29T00:36:24.518Z,6.90
2022-09-29T00:38:55.067Z,6.90
2022-09-29T00:41:25.448Z,6.90
2022-09-29T00:44:04.250Z,6.90
2022-09-29T00:46:30.994Z,6.90
2022-09-29T00:49:02.591Z,6.90
2022-09-29T00:51:32.379Z,6.80
2022-09-29T00:54:00.699Z,6.80
2022-09-29T00:56:28.998Z,6.80
2022-09-29T00:59:01.263Z,6.80
2022-09-29T01:01:31.649Z,6.80
2022-09-29T01:04:11.797Z,6.80
2022-09-29T01:06:44.084Z,6.80
2022-09-29T01:09:17.309Z,6.80
2022-09-29T01:11:44.069Z,6.80
2022-09-29T01:14:11.697Z,6.80
2022-09-29T01:16:42.200Z,6.80
2022-09-29T01:19:18.097Z,6.90
2022-09-29T01:22:08.042Z,6.80
2022-09-29T01:24:41.000Z,6.80
2022-09-29T01:27:33.473Z,6.80
2022-09-29T01:30:09.260Z,6.80
2022-09-29T01:33:08.207Z,6.80
2022-09-29T01:35:46.374Z,6.80
2022-09-29T01:38:39.398Z,6.90
2022-09-29T01:41:12.196Z,6.90
2022-09-29T01:43:44.757Z,6.90
2022-09-29T01:46:20.948Z,6.80
2022-09-29T01:48:52.420Z,6.90
2022-09-29T01:51:25.037Z,6.90
2022-09-29T01:53:59.254Z,6.90
2022-09-29T01:56:29.380Z,6.90
2022-09-29T01:59:01.850Z,6.90
2022-09-29T02:01:35.279Z,6.90
2022-09-29T02:04:11.685Z,6.80
2022-09-29T02:06:47.864Z,6.90
2022-09-29T02:09:23.447Z,6.80
2022-09-29T02:11:53.952Z,6.90
2022-09-29T02:14:25.489Z,6.80
2022-09-29T02:17:03.197Z,6.90
2022-09-29T02:19:35.094Z,6.80
2022-09-29T02:22:02.027Z,6.90
2022-09-29T02:24:28.876Z,6.80
2022-09-29T02:26:56.228Z,6.90
2022-09-29T02:29:23.051Z,6.90
2022-09-29T02:31:50.817Z,6.90
2022-09-29T02:34:21.737Z,6.90
2022-09-29T02:37:09.850Z,6.90
2022-09-29T02:40:04.365Z,6.90
2022-09-29T02:43:12.396Z,6.90
2022-09-29T02:45:47.972Z,6.90
2022-09-29T02:48:36.665Z,6.90
2022-09-29T02:51:25.222Z,6.90
2022-09-29T02:54:26.241Z,6.90
2022-09-29T02:57:08.061Z,6.90
2022-09-29T02:59:39.227Z,6.90
2022-09-29T03:02:06.163Z,6.90
2022-09-29T03:04:35.853Z,6.90
2022-09-29T03:07:02.607Z,7.00
2022-09-29T03:09:29.626Z,6.90
2022-09-29T03:11:56.475Z,6.90
2022-09-29T03:14:23.230Z,7.10
2022-09-29T03:16:49.989Z,7.10
2022-09-29T03:19:16.728Z,7.00
2022-09-29T03:21:43.536Z,6.90
2022-09-29T03:24:10.280Z,6.90
2022-09-29T03:26:37.800Z,6.90
2022-09-29T03:29:04.712Z,7.10
2022-09-29T03:31:31.636Z,7.00
2022-09-29T03:33:58.484Z,7.00
2022-09-29T03:36:25.703Z,7.00
2022-09-29T03:38:52.561Z,6.90
2022-09-29T03:41:19.438Z,6.90
2022-09-29T03:43:46.657Z,7.00
2022-09-29T03:46:15.537Z,7.00
2022-09-29T03:48:43.008Z,7.10
2022-09-29T03:51:10.344Z,6.90
2022-09-29T03:53:37.117Z,6.90
2022-09-29T03:56:04.782Z,6.90
2022-09-29T03:58:31.612Z,6.90
2022-09-29T04:00:58.728Z,6.90
2022-09-29T04:03:26.030Z,6.90
2022-09-29T04:05:52.873Z,6.90
2022-09-29T04:08:19.713Z,6.90
2022-09-29T04:10:47.829Z,6.90
2022-09-29T04:13:19.643Z,6.80
2022-09-29T04:15:47.378Z,6.90
2022-09-29T04:18:14.697Z,6.90
2022-09-29T04:20:41.470Z,6.90
2022-09-29T04:23:08.382Z,6.90
2022-09-29T04:25:35.139Z,6.90
2022-09-29T04:28:02.061Z,6.90
2022-09-29T04:30:28.836Z,6.80
2022-09-29T04:32:55.586Z,6.80
2022-09-29T04:35:22.386Z,6.80
2022-09-29T04:37:49.141Z,6.80
2022-09-29T04:40:17.140Z,6.90
2022-09-29T04:42:43.966Z,6.70
2022-09-29T04:45:10.888Z,6.70
2022-09-29T04:47:37.697Z,6.70
2022-09-29T04:50:05.086Z,6.70
2022-09-29T04:52:31.883Z,6.70
2022-09-29T04:54:58.649Z,6.70
2022-09-29T04:57:25.473Z,6.70
2022-09-29T04:59:52.325Z,6.70
2022-09-29T05:02:19.653Z,6.70
2022-09-29T05:04:47.688Z,6.70
2022-09-29T05:07:15.358Z,6.70
2022-09-29T05:09:42.226Z,6.70
2022-09-29T05:12:08.995Z,6.70
2022-09-29T05:14:35.830Z,6.70
2022-09-29T05:17:02.693Z,6.70
2022-09-29T05:19:30.098Z,6.70
2022-09-29T05:21:56.879Z,6.60
2022-09-29T05:24:23.854Z,6.70
2022-09-29T05:26:52.740Z,6.60
2022-09-29T05:29:23.587Z,6.60
2022-09-29T05:31:51.237Z,6.60
2022-09-29T05:34:18.098Z,6.60
2022-09-29T05:36:45.011Z,6.50
2022-09-29T05:39:12.165Z,6.60
2022-09-29T05:41:39.399Z,6.80
2022-09-29T05:44:06.327Z,6.80
2022-09-29T05:46:33.135Z,7.00
2022-09-29T05:48:59.917Z,7.10
2022-09-29T05:51:27.374Z,6.90
2022-09-29T05:53:54.881Z,6.80
2022-09-29T05:56:24.238Z,6.70
2022-09-29T05:58:51.567Z,6.80
2022-09-29T06:01:23.706Z,6.80
2022-09-29T06:03:53.429Z,6.70
2022-09-29T06:06:23.136Z,6.70
2022-09-29T06:08:50.598Z,6.70
2022-09-29T06:11:27.409Z,6.70
2022-09-29T06:13:55.380Z,6.70
2022-09-29T06:16:25.733Z,6.70
2022-09-29T06:18:53.184Z,6.70
2022-09-29T06:21:23.716Z,6.70
2022-09-29T06:23:51.595Z,6.70
2022-09-29T06:26:23.702Z,6.70
2022-09-29T06:28:51.203Z,6.90
2022-09-29T06:31:20.670Z,6.90
2022-09-29T06:33:47.698Z,6.80
2022-09-29T06:36:40.185Z,6.80
2022-09-29T06:39:09.651Z,6.80
2022-09-29T06:41:36.462Z,6.80
2022-09-29T06:44:03.635Z,6.80
2022-09-29T06:46:30.983Z,6.80
2022-09-29T06:48:57.921Z,6.80
2022-09-29T06:51:33.243Z,6.80
2022-09-29T06:54:11.502Z,6.80
2022-09-29T06:56:39.382Z,6.80
2022-09-29T06:59:06.609Z,6.80
2022-09-29T07:01:34.177Z,6.90
2022-09-29T07:04:02.390Z,7.00
2022-09-29T07:06:30.492Z,7.10
2022-09-29T07:08:58.929Z,7.00
2022-09-29T07:11:26.726Z,7.00
2022-09-29T07:13:55.152Z,7.00
2022-09-29T07:16:24.216Z,6.90
2022-09-29T07:18:51.863Z,7.00
2022-09-29T07:21:19.715Z,7.00
2022-09-29T07:23:47.181Z,7.10
2022-09-29T07:26:16.708Z,7.20
2022-09-29T07:28:45.342Z,7.30
2022-09-29T07:31:18.118Z,7.30
2022-09-29T07:33:45.944Z,7.40
2022-09-29T07:36:19.140Z,7.50
2022-09-29T07:38:48.772Z,7.50
2022-09-29T07:41:16.899Z,7.50
2022-09-29T07:43:43.903Z,7.70
2022-09-29T07:46:11.211Z,7.60
2022-09-29T07:48:39.104Z,7.60
2022-09-29T07:51:07.800Z,7.60
2022-09-29T07:53:36.189Z,7.50
2022-09-29T07:56:08.735Z,7.50
2022-09-29T07:58:36.294Z,7.50
2022-09-29T08:01:06.390Z,7.50
2022-09-29T08:03:33.870Z,7.50
2022-09-29T08:06:00.601Z,7.60
2022-09-29T08:08:27.457Z,7.50
2022-09-29T08:11:03.129Z,7.60
2022-09-29T08:13:31.226Z,7.60
2022-09-29T08:15:59.609Z,7.70
2022-09-29T08:18:28.315Z,7.70
2022-09-29T08:20:57.649Z,7.90
2022-09-29T08:23:27.032Z,8.00
2022-09-29T08:26:08.797Z,8.10
2022-09-29T08:28:37.901Z,8.20
2022-09-29T08:31:09.749Z,8.10
2022-09-29T08:33:37.387Z,8.00
2022-09-29T08:36:08.169Z,7.90
2022-09-29T08:38:35.076Z,7.90
2022-09-29T08:41:04.993Z,7.90
2022-09-29T08:43:39.759Z,7.90
2022-09-29T08:46:30.779Z,7.90
2022-09-29T08:49:06.213Z,8.00
2022-09-29T08:51:42.619Z,8.10
2022-09-29T08:54:38.538Z,8.00
2022-09-29T08:57:07.643Z,8.00
2022-09-29T08:59:34.579Z,7.90
2022-09-29T09:02:34.675Z,8.10
2022-09-29T09:05:10.408Z,8.10
2022-09-29T09:08:08.564Z,8.10
2022-09-29T09:10:51.087Z,8.10
2022-09-29T09:13:39.237Z,8.30
2022-09-29T09:16:18.374Z,8.20
2022-09-29T09:18:52.368Z,8.30
2022-09-29T09:21:36.740Z,8.40
2022-09-29T09:24:28.663Z,8.50
2022-09-29T09:26:58.514Z,8.60
2022-09-29T09:29:38.033Z,8.90
2022-09-29T09:32:21.943Z,9.10
2022-09-29T09:35:21.242Z,9.30
2022-09-29T09:37:51.454Z,9.20
2022-09-29T09:40:24.893Z,9.10
2022-09-29T09:43:00.059Z,9.10
2022-09-29T09:45:34.358Z,9.00
2022-09-29T09:48:22.093Z,9.10
2022-09-29T09:50:50.459Z,9.10
2022-09-29T09:53:24.463Z,9.10
2022-09-29T09:56:22.552Z,9.00
2022-09-29T09:59:32.299Z,9.10
2022-09-29T10:01:59.433Z,9.10
2022-09-29T10:04:26.370Z,9.10
2022-09-29T10:06:53.450Z,9.20
2022-09-29T10:09:20.653Z,9.10
2022-09-29T10:11:48.034Z,9.20
2022-09-29T10:14:22.722Z,9.30
2022-09-29T10:17:10.428Z,9.40
2022-09-29T10:20:00.499Z,9.30
2022-09-29T10:22:29.263Z,9.30
2022-09-29T10:25:20.406Z,9.20
2022-09-29T10:27:53.979Z,9.30
2022-09-29T10:30:41.236Z,9.40
2022-09-29T10:33:16.454Z,9.40
2022-09-29T10:35:45.391Z,9.60
2022-09-29T10:38:26.618Z,9.40
2022-09-29T10:41:08.677Z,9.40
2022-09-29T10:43:40.863Z,9.40
2022-09-29T10:46:27.964Z,9.40
2022-09-29T10:49:18.327Z,9.40
2022-09-29T10:52:21.055Z,9.50
2022-09-29T10:55:05.186Z,9.60
2022-09-29T10:57:35.257Z,9.80
2022-09-29T11:00:02.947Z,9.60
2022-09-29T11:02:37.419Z,9.50
2022-09-29T11:05:16.884Z,9.60
2022-09-29T11:07:50.040Z,9.70
2022-09-29T11:10:38.841Z,9.80
2022-09-29T11:13:24.192Z,9.70
2022-09-29T11:15:51.731Z,9.70
2022-09-29T11:18:46.814Z,9.70
2022-09-29T11:21:34.767Z,9.90
2022-09-29T11:24:17.153Z,9.80
2022-09-29T11:26:53.305Z,9.80
2022-09-29T11:29:55.194Z,9.80
2022-09-29T11:32:31.425Z,9.80
2022-09-29T11:35:06.030Z,9.70
2022-09-29T11:37:59.535Z,9.50
2022-09-29T11:40:47.290Z,9.70
2022-09-29T11:43:34.916Z,9.60
2022-09-29T11:46:47.688Z,9.80
2022-09-29T11:49:30.630Z,9.80
2022-09-29T11:52:18.826Z,9.80
2022-09-29T11:55:33.498Z,9.70
2022-09-29T11:58:35.559Z,9.70
2022-09-29T12:01:34.016Z,9.70
2022-09-29T12:04:16.088Z,9.70
2022-09-29T12:06:59.607Z,9.70
2022-09-29T12:09:51.318Z,10.00
2022-09-29T12:12:50.900Z,9.80
2022-09-29T12:15:40.181Z,9.80
2022-09-29T12:22:38.483Z,9.90
2022-09-29T12:26:13.601Z,10.20
2022-09-29T12:29:06.859Z,10.20
2022-09-29T12:31:50.515Z,10.30
2022-09-29T12:35:03.962Z,10.30
2022-09-29T12:38:04.056Z,10.20
2022-09-29T12:41:04.808Z,10.10
2022-09-29T12:43:59.752Z,10.00
2022-09-29T12:46:41.573Z,10.00
2022-09-29T12:49:22.941Z,10.10
2022-09-29T12:51:51.590Z,10.10
2022-09-29T12:54:24.356Z,10.10
2022-09-29T12:57:09.365Z,10.20
2022-09-29T12:59:48.855Z,10.00
2022-09-29T13:02:33.771Z,10.00
2022-09-29T13:05:20.644Z,10.10
2022-09-29T13:08:14.639Z,10.50
2022-09-29T13:11:02.152Z,10.40
2022-09-29T13:14:10.984Z,10.50
2022-09-29T13:16:58.296Z,10.70
